Date,TemperatureHighF,TemperatureAvgF,TemperatureLowF,DewpointHighF,DewpointAvgF,DewpointLowF,HumidityHigh,HumidityAvg,HumidityLow,PressureMaxIn,PressureMinIn,WindSpeedMaxMPH,WindSpeedAvgMPH,GustSpeedMaxMPH,PrecipitationSumIn
2013-7-1,88,78,66,69,66,64,93,69,49,29.94,29.82,4,1,10,0.00
2013-7-2,90,78,67,70,66,63,94,70,45,30.01,29.92,5,1,9,0.00
2013-7-3,90,78,66,69,66,60,95,70,41,30.05,29.93,6,2,11,0.00
2013-7-4,90,79,66,73,67,64,93,69,45,29.99,29.91,5,1,11,0.00
2013-7-5,94,78,68,74,67,-100,93,72,38,30.00,29.91,12,-5,18,0.00
2013-7-6,90,78,70,77,70,-100,96,81,56,30.00,29.90,5,-6,11,0.01
2013-7-7,90,76,74,78,67,-100,95,82,64,30.06,29.94,6,-45,9,0.11
2013-7-8,92,80,73,77,74,72,97,82,58,30.15,-32.77,5,1,7,0.00
2013-7-9,94,83,73,79,74,-100,97,78,56,30.17,30.03,4,-6,7,0.00
2013-7-10,96,85,74,79,76,73,96,76,53,30.10,29.93,3,1,6,0.00
2013-7-11,90,81,74,79,75,70,93,82,64,30.00,29.91,13,1,25,0.01
2013-7-12,96,84,73,78,72,65,96,71,49,29.96,29.85,7,1,11,0.01
2013-7-13,81,72,66,66,64,63,91,79,63,29.95,29.91,2,1,5,0.00
2013-7-14,89,78,69,76,70,66,90,77,57,29.98,29.90,6,2,12,0.00
2013-7-15,90,76,70,76,72,68,95,87,57,30.12,29.96,9,2,19,0.14
2013-7-16,89,80,74,77,74,72,95,83,64,30.17,30.06,12,3,18,0.14
2013-7-17,92,82,74,76,74,73,96,80,54,30.23,30.10,5,2,9,0.15
2013-7-18,95,79,72,77,73,70,95,81,54,30.16,30.01,5,1,10,0.00
2013-7-19,94,80,70,75,72,69,96,78,50,30.07,29.92,4,1,8,0.00
2013-7-20,93,80,70,76,72,68,96,78,54,29.99,29.88,5,1,10,0.00
2013-7-21,89,79,72,80,74,70,96,85,66,30.00,29.93,7,1,13,0.19
2013-7-22,94,83,73,82,76,72,96,81,61,30.03,29.93,4,2,13,0.09
2013-7-23,95,85,77,78,76,74,96,76,52,30.04,29.88,5,2,11,0.09
2013-7-24,92,81,74,79,75,71,97,83,60,29.98,29.86,7,1,12,1.26
2013-7-25,93,82,73,77,74,72,98,80,54,30.05,29.93,5,1,7,1.26
2013-7-26,93,83,74,79,75,71,93,77,59,30.06,29.90,6,1,9,0.00
2013-7-27,85,79,74,78,75,72,96,88,73,29.93,29.86,4,1,8,0.49
2013-7-28,91,81,71,76,73,69,96,78,57,30.00,29.92,5,1,8,0.49
2013-7-29,94,84,74,79,75,72,96,78,52,30.09,29.99,4,1,8,0.00
2013-7-30,96,84,72,78,74,68,97,74,43,30.14,30.01,4,1,8,0.00
2013-7-31,96,84,74,79,75,70,95,75,50,30.09,29.93,3,1,8,0.00